sensor_id;sensor_type;location;lat;lon;timestamp;P1;durP1;ratioP1;P2;durP2;ratioP2
26277;SDS011;14000;52.056;8.510;2023-02-28T00:00:26;20.00;;;9.93;;
26277;SDS011;14000;52.056;8.510;2023-02-28T00:02:52;19.70;;;9.57;;
26277;SDS011;14000;52.056;8.510;2023-02-28T00:05:19;19.27;;;8.73;;
26277;SDS011;14000;52.056;8.510;2023-02-28T00:07:46;20.13;;;9.50;;
26277;SDS011;14000;52.056;8.510;2023-02-28T00:10:14;17.10;;;8.40;;
26277;SDS011;14000;52.056;8.510;2023-02-28T00:12:45;18.17;;;8.60;;
26277;SDS011;14000;52.056;8.510;2023-02-28T00:15:12;18.73;;;8.20;;
26277;SDS011;14000;52.056;8.510;2023-02-28T00:17:37;18.30;;;8.30;;
26277;SDS011;14000;52.056;8.510;2023-02-28T00:20:03;18.07;;;8.50;;
26277;SDS011;14000;52.056;8.510;2023-02-28T00:22:33;18.47;;;9.37;;
26277;SDS011;14000;52.056;8.510;2023-02-28T00:24:59;20.50;;;8.48;;
26277;SDS011;14000;52.056;8.510;2023-02-28T00:27:24;17.77;;;8.60;;
26277;SDS011;14000;52.056;8.510;2023-02-28T00:29:50;17.23;;;9.30;;
26277;SDS011;14000;52.056;8.510;2023-02-28T00:32:16;18.23;;;9.33;;
26277;SDS011;14000;52.056;8.510;2023-02-28T00:34:42;23.00;;;10.15;;
26277;SDS011;14000;52.056;8.510;2023-02-28T00:37:08;21.83;;;10.33;;
26277;SDS011;14000;52.056;8.510;2023-02-28T00:39:37;20.43;;;10.47;;
26277;SDS011;14000;52.056;8.510;2023-02-28T00:42:03;22.63;;;10.50;;
26277;SDS011;14000;52.056;8.510;2023-02-28T00:44:29;24.47;;;10.53;;
26277;SDS011;14000;52.056;8.510;2023-02-28T00:46:55;23.03;;;10.20;;
26277;SDS011;14000;52.056;8.510;2023-02-28T00:49:21;24.90;;;11.07;;
26277;SDS011;14000;52.056;8.510;2023-02-28T00:51:47;24.47;;;10.00;;
26277;SDS011;14000;52.056;8.510;2023-02-28T00:54:13;17.53;;;9.27;;
26277;SDS011;14000;52.056;8.510;2023-02-28T00:56:39;22.07;;;10.20;;
26277;SDS011;14000;52.056;8.510;2023-02-28T00:59:04;20.30;;;9.63;;
26277;SDS011;14000;52.056;8.510;2023-02-28T01:01:30;21.03;;;10.23;;
26277;SDS011;14000;52.056;8.510;2023-02-28T01:03:56;17.23;;;9.40;;
26277;SDS011;14000;52.056;8.510;2023-02-28T01:06:21;21.63;;;8.63;;
26277;SDS011;14000;52.056;8.510;2023-02-28T01:08:47;16.57;;;7.40;;
26277;SDS011;14000;52.056;8.510;2023-02-28T01:11:13;16.97;;;8.53;;
26277;SDS011;14000;52.056;8.510;2023-02-28T01:13:41;16.57;;;8.40;;
26277;SDS011;14000;52.056;8.510;2023-02-28T01:16:07;19.75;;;9.55;;
26277;SDS011;14000;52.056;8.510;2023-02-28T01:18:33;18.17;;;8.33;;
26277;SDS011;14000;52.056;8.510;2023-02-28T01:21:03;18.97;;;8.97;;
26277;SDS011;14000;52.056;8.510;2023-02-28T01:23:30;20.08;;;9.63;;
26277;SDS011;14000;52.056;8.510;2023-02-28T01:25:57;22.23;;;9.45;;
26277;SDS011;14000;52.056;8.510;2023-02-28T01:28:29;17.52;;;8.48;;
26277;SDS011;14000;52.056;8.510;2023-02-28T01:30:54;19.60;;;8.33;;
26277;SDS011;14000;52.056;8.510;2023-02-28T01:33:20;17.60;;;8.67;;
26277;SDS011;14000;52.056;8.510;2023-02-28T01:35:45;20.80;;;8.60;;
26277;SDS011;14000;52.056;8.510;2023-02-28T01:38:11;16.53;;;7.90;;
26277;SDS011;14000;52.056;8.510;2023-02-28T01:40:36;19.73;;;8.63;;
26277;SDS011;14000;52.056;8.510;2023-02-28T01:43:02;16.57;;;8.27;;
26277;SDS011;14000;52.056;8.510;2023-02-28T01:45:29;17.97;;;8.97;;
26277;SDS011;14000;52.056;8.510;2023-02-28T01:47:58;16.20;;;8.30;;
26277;SDS011;14000;52.056;8.510;2023-02-28T01:50:31;19.13;;;8.80;;
26277;SDS011;14000;52.056;8.510;2023-02-28T01:53:00;20.40;;;9.43;;
26277;SDS011;14000;52.056;8.510;2023-02-28T01:55:29;21.40;;;10.50;;
26277;SDS011;14000;52.056;8.510;2023-02-28T01:57:57;19.75;;;9.38;;
26277;SDS011;14000;52.056;8.510;2023-02-28T02:00:27;19.33;;;9.73;;
26277;SDS011;14000;52.056;8.510;2023-02-28T02:02:55;20.10;;;10.52;;
26277;SDS011;14000;52.056;8.510;2023-02-28T02:05:25;25.13;;;10.63;;
26277;SDS011;14000;52.056;8.510;2023-02-28T02:07:57;20.02;;;10.68;;
26277;SDS011;14000;52.056;8.510;2023-02-28T02:10:32;25.50;;;11.63;;
26277;SDS011;14000;52.056;8.510;2023-02-28T02:18:13;24.33;;;10.57;;
26277;SDS011;14000;52.056;8.510;2023-02-28T02:23:33;20.67;;;10.07;;
26277;SDS011;14000;52.056;8.510;2023-02-28T02:34:39;23.33;;;11.10;;
26277;SDS011;14000;52.056;8.510;2023-02-28T02:40:05;21.75;;;11.02;;
26277;SDS011;14000;52.056;8.510;2023-02-28T02:42:50;19.13;;;9.30;;
26277;SDS011;14000;52.056;8.510;2023-02-28T02:45:31;15.82;;;7.95;;
26277;SDS011;14000;52.056;8.510;2023-02-28T02:48:01;17.42;;;8.40;;
26277;SDS011;14000;52.056;8.510;2023-02-28T02:50:31;20.60;;;9.55;;
26277;SDS011;14000;52.056;8.510;2023-02-28T02:53:02;20.88;;;10.05;;
26277;SDS011;14000;52.056;8.510;2023-02-28T02:55:30;21.67;;;10.13;;
26277;SDS011;14000;52.056;8.510;2023-02-28T02:58:00;20.77;;;9.35;;
26277;SDS011;14000;52.056;8.510;2023-02-28T03:00:30;19.48;;;8.82;;
26277;SDS011;14000;52.056;8.510;2023-02-28T03:03:00;22.38;;;8.82;;
26277;SDS011;14000;52.056;8.510;2023-02-28T03:05:28;19.13;;;9.35;;
26277;SDS011;14000;52.056;8.510;2023-02-28T03:07:59;17.77;;;8.65;;
26277;SDS011;14000;52.056;8.510;2023-02-28T03:10:30;17.42;;;8.20;;
26277;SDS011;14000;52.056;8.510;2023-02-28T03:13:11;20.23;;;8.52;;
26277;SDS011;14000;52.056;8.510;2023-02-28T03:18:40;19.85;;;8.65;;
26277;SDS011;14000;52.056;8.510;2023-02-28T03:26:28;16.98;;;8.15;;
26277;SDS011;14000;52.056;8.510;2023-02-28T03:29:08;22.75;;;8.70;;
26277;SDS011;14000;52.056;8.510;2023-02-28T03:31:48;17.73;;;7.60;;
26277;SDS011;14000;52.056;8.510;2023-02-28T03:34:33;18.73;;;8.23;;
26277;SDS011;14000;52.056;8.510;2023-02-28T03:37:11;19.40;;;8.40;;
26277;SDS011;14000;52.056;8.510;2023-02-28T03:39:42;20.02;;;9.05;;
26277;SDS011;14000;52.056;8.510;2023-02-28T03:42:14;19.38;;;8.20;;
26277;SDS011;14000;52.056;8.510;2023-02-28T03:44:54;19.45;;;8.85;;
26277;SDS011;14000;52.056;8.510;2023-02-28T03:47:25;17.98;;;8.27;;
26277;SDS011;14000;52.056;8.510;2023-02-28T03:52:28;18.20;;;8.68;;
26277;SDS011;14000;52.056;8.510;2023-02-28T03:54:59;18.40;;;8.50;;
26277;SDS011;14000;52.056;8.510;2023-02-28T03:57:37;20.33;;;8.70;;
26277;SDS011;14000;52.056;8.510;2023-02-28T04:00:13;18.30;;;8.25;;
26277;SDS011;14000;52.056;8.510;2023-02-28T04:02:42;20.17;;;8.75;;
26277;SDS011;14000;52.056;8.510;2023-02-28T04:05:08;18.57;;;8.70;;
26277;SDS011;14000;52.056;8.510;2023-02-28T04:07:34;23.97;;;9.40;;
26277;SDS011;14000;52.056;8.510;2023-02-28T04:10:00;21.77;;;9.20;;
26277;SDS011;14000;52.056;8.510;2023-02-28T04:12:25;18.20;;;8.83;;
26277;SDS011;14000;52.056;8.510;2023-02-28T04:14:51;18.83;;;8.63;;
26277;SDS011;14000;52.056;8.510;2023-02-28T04:17:17;17.63;;;8.17;;
26277;SDS011;14000;52.056;8.510;2023-02-28T04:19:43;20.05;;;8.77;;
26277;SDS011;14000;52.056;8.510;2023-02-28T04:22:10;19.08;;;9.60;;
26277;SDS011;14000;52.056;8.510;2023-02-28T04:24:35;18.03;;;9.33;;
26277;SDS011;14000;52.056;8.510;2023-02-28T04:27:02;16.77;;;8.53;;
26277;SDS011;14000;52.056;8.510;2023-02-28T04:29:28;22.35;;;9.43;;
26277;SDS011;14000;52.056;8.510;2023-02-28T04:31:56;17.98;;;9.05;;
26277;SDS011;14000;52.056;8.510;2023-02-28T04:34:26;23.02;;;10.38;;
26277;SDS011;14000;52.056;8.510;2023-02-28T04:36:54;23.05;;;10.90;;
26277;SDS011;14000;52.056;8.510;2023-02-28T04:39:22;21.90;;;10.02;;
26277;SDS011;14000;52.056;8.510;2023-02-28T04:41:48;22.92;;;10.00;;
26277;SDS011;14000;52.056;8.510;2023-02-28T04:44:14;21.55;;;9.70;;
26277;SDS011;14000;52.056;8.510;2023-02-28T04:46:40;22.07;;;9.50;;
26277;SDS011;14000;52.056;8.510;2023-02-28T04:49:06;19.00;;;9.48;;
26277;SDS011;14000;52.056;8.510;2023-02-28T04:51:33;20.45;;;9.30;;
26277;SDS011;14000;52.056;8.510;2023-02-28T04:53:58;22.23;;;9.90;;
26277;SDS011;14000;52.056;8.510;2023-02-28T04:56:25;23.73;;;10.73;;
26277;SDS011;14000;52.056;8.510;2023-02-28T04:58:51;26.83;;;10.57;;
26277;SDS011;14000;52.056;8.510;2023-02-28T05:01:25;22.17;;;10.93;;
26277;SDS011;14000;52.056;8.510;2023-02-28T05:03:55;27.73;;;11.43;;
26277;SDS011;14000;52.056;8.510;2023-02-28T05:06:24;24.67;;;11.63;;
26277;SDS011;14000;52.056;8.510;2023-02-28T05:08:51;26.08;;;11.48;;
26277;SDS011;14000;52.056;8.510;2023-02-28T05:11:21;24.17;;;11.23;;
26277;SDS011;14000;52.056;8.510;2023-02-28T05:13:54;22.25;;;11.07;;
26277;SDS011;14000;52.056;8.510;2023-02-28T05:16:20;25.65;;;11.55;;
26277;SDS011;14000;52.056;8.510;2023-02-28T05:18:46;24.87;;;12.03;;
26277;SDS011;14000;52.056;8.510;2023-02-28T05:21:25;23.90;;;10.97;;
26277;SDS011;14000;52.056;8.510;2023-02-28T05:24:06;24.80;;;11.18;;
26277;SDS011;14000;52.056;8.510;2023-02-28T05:26:39;25.85;;;11.57;;
26277;SDS011;14000;52.056;8.510;2023-02-28T05:29:08;23.55;;;10.77;;
26277;SDS011;14000;52.056;8.510;2023-02-28T05:31:37;22.38;;;10.55;;
26277;SDS011;14000;52.056;8.510;2023-02-28T05:34:04;24.52;;;11.63;;
26277;SDS011;14000;52.056;8.510;2023-02-28T05:36:30;23.70;;;12.43;;
26277;SDS011;14000;52.056;8.510;2023-02-28T05:38:56;23.67;;;11.70;;
26277;SDS011;14000;52.056;8.510;2023-02-28T05:41:21;22.70;;;10.90;;
26277;SDS011;14000;52.056;8.510;2023-02-28T05:43:47;23.20;;;11.60;;
26277;SDS011;14000;52.056;8.510;2023-02-28T05:46:13;24.23;;;11.73;;
26277;SDS011;14000;52.056;8.510;2023-02-28T05:48:40;26.23;;;11.88;;
26277;SDS011;14000;52.056;8.510;2023-02-28T05:51:07;23.33;;;10.63;;
26277;SDS011;14000;52.056;8.510;2023-02-28T05:53:34;20.27;;;10.98;;
26277;SDS011;14000;52.056;8.510;2023-02-28T05:56:00;22.20;;;11.10;;
26277;SDS011;14000;52.056;8.510;2023-02-28T05:58:26;23.13;;;11.40;;
26277;SDS011;14000;52.056;8.510;2023-02-28T06:00:55;22.95;;;11.40;;
26277;SDS011;14000;52.056;8.510;2023-02-28T06:03:21;21.40;;;11.75;;
26277;SDS011;14000;52.056;8.510;2023-02-28T06:05:47;20.20;;;11.47;;
26277;SDS011;14000;52.056;8.510;2023-02-28T06:08:13;21.93;;;10.23;;
26277;SDS011;14000;52.056;8.510;2023-02-28T06:10:38;24.80;;;11.20;;
26277;SDS011;14000;52.056;8.510;2023-02-28T06:13:04;24.40;;;12.10;;
26277;SDS011;14000;52.056;8.510;2023-02-28T06:15:30;20.38;;;11.65;;
26277;SDS011;14000;52.056;8.510;2023-02-28T06:17:56;20.20;;;10.85;;
26277;SDS011;14000;52.056;8.510;2023-02-28T06:20:23;26.95;;;11.35;;
26277;SDS011;14000;52.056;8.510;2023-02-28T06:22:53;20.45;;;10.60;;
26277;SDS011;14000;52.056;8.510;2023-02-28T06:25:20;22.25;;;12.57;;
26277;SDS011;14000;52.056;8.510;2023-02-28T06:27:47;23.00;;;11.63;;
26277;SDS011;14000;52.056;8.510;2023-02-28T06:30:13;22.52;;;12.20;;
26277;SDS011;14000;52.056;8.510;2023-02-28T06:32:39;21.63;;;11.53;;
26277;SDS011;14000;52.056;8.510;2023-02-28T06:35:04;24.07;;;12.37;;
26277;SDS011;14000;52.056;8.510;2023-02-28T06:37:31;20.23;;;11.60;;
26277;SDS011;14000;52.056;8.510;2023-02-28T06:39:57;25.83;;;10.85;;
26277;SDS011;14000;52.056;8.510;2023-02-28T06:42:23;24.77;;;12.43;;
26277;SDS011;14000;52.056;8.510;2023-02-28T06:44:56;20.73;;;11.70;;
26277;SDS011;14000;52.056;8.510;2023-02-28T06:47:22;25.25;;;12.65;;
26277;SDS011;14000;52.056;8.510;2023-02-28T06:49:49;24.70;;;12.27;;
26277;SDS011;14000;52.056;8.510;2023-02-28T06:52:15;21.25;;;11.13;;
26277;SDS011;14000;52.056;8.510;2023-02-28T06:54:41;24.00;;;11.23;;
26277;SDS011;14000;52.056;8.510;2023-02-28T06:57:06;23.80;;;11.67;;
26277;SDS011;14000;52.056;8.510;2023-02-28T06:59:32;20.20;;;11.47;;
26277;SDS011;14000;52.056;8.510;2023-02-28T07:02:00;24.15;;;11.95;;
26277;SDS011;14000;52.056;8.510;2023-02-28T07:04:27;26.27;;;13.43;;
26277;SDS011;14000;52.056;8.510;2023-02-28T07:06:52;28.17;;;13.07;;
26277;SDS011;14000;52.056;8.510;2023-02-28T07:09:21;25.45;;;13.15;;
26277;SDS011;14000;52.056;8.510;2023-02-28T07:11:46;22.60;;;12.17;;
26277;SDS011;14000;52.056;8.510;2023-02-28T07:14:12;21.50;;;12.13;;
26277;SDS011;14000;52.056;8.510;2023-02-28T07:16:37;22.53;;;12.50;;
26277;SDS011;14000;52.056;8.510;2023-02-28T07:19:03;23.07;;;12.27;;
26277;SDS011;14000;52.056;8.510;2023-02-28T07:21:29;24.25;;;12.50;;
26277;SDS011;14000;52.056;8.510;2023-02-28T07:23:55;23.10;;;12.83;;
26277;SDS011;14000;52.056;8.510;2023-02-28T07:26:21;26.02;;;14.32;;
26277;SDS011;14000;52.056;8.510;2023-02-28T07:28:47;25.27;;;14.30;;
26277;SDS011;14000;52.056;8.510;2023-02-28T07:31:14;33.95;;;18.13;;
26277;SDS011;14000;52.056;8.510;2023-02-28T07:33:41;33.35;;;17.80;;
26277;SDS011;14000;52.056;8.510;2023-02-28T07:36:09;36.33;;;18.67;;
26277;SDS011;14000;52.056;8.510;2023-02-28T07:38:40;32.22;;;16.85;;
26277;SDS011;14000;52.056;8.510;2023-02-28T07:41:09;28.13;;;14.38;;
26277;SDS011;14000;52.056;8.510;2023-02-28T07:43:35;29.50;;;16.17;;
26277;SDS011;14000;52.056;8.510;2023-02-28T07:46:04;28.10;;;15.73;;
26277;SDS011;14000;52.056;8.510;2023-02-28T07:48:35;22.85;;;13.90;;
26277;SDS011;14000;52.056;8.510;2023-02-28T07:51:01;26.90;;;14.33;;
26277;SDS011;14000;52.056;8.510;2023-02-28T07:53:27;26.92;;;14.27;;
26277;SDS011;14000;52.056;8.510;2023-02-28T07:55:57;25.85;;;14.40;;
26277;SDS011;14000;52.056;8.510;2023-02-28T07:58:24;24.98;;;13.93;;
26277;SDS011;14000;52.056;8.510;2023-02-28T08:00:51;22.63;;;13.43;;
26277;SDS011;14000;52.056;8.510;2023-02-28T08:03:18;23.53;;;12.97;;
26277;SDS011;14000;52.056;8.510;2023-02-28T08:05:45;23.43;;;13.10;;
26277;SDS011;14000;52.056;8.510;2023-02-28T08:08:13;27.17;;;13.57;;
26277;SDS011;14000;52.056;8.510;2023-02-28T08:10:43;29.03;;;14.67;;
26277;SDS011;14000;52.056;8.510;2023-02-28T08:13:10;24.90;;;12.90;;
26277;SDS011;14000;52.056;8.510;2023-02-28T08:15:36;20.37;;;11.77;;
26277;SDS011;14000;52.056;8.510;2023-02-28T08:18:04;20.67;;;11.03;;
26277;SDS011;14000;52.056;8.510;2023-02-28T08:20:29;24.00;;;11.47;;
26277;SDS011;14000;52.056;8.510;2023-02-28T08:22:55;20.60;;;11.13;;
26277;SDS011;14000;52.056;8.510;2023-02-28T08:25:21;19.83;;;10.80;;
26277;SDS011;14000;52.056;8.510;2023-02-28T08:27:46;16.53;;;9.57;;
26277;SDS011;14000;52.056;8.510;2023-02-28T08:30:12;20.60;;;9.50;;
26277;SDS011;14000;52.056;8.510;2023-02-28T08:32:39;18.07;;;8.63;;
26277;SDS011;14000;52.056;8.510;2023-02-28T08:35:05;21.77;;;9.30;;
26277;SDS011;14000;52.056;8.510;2023-02-28T08:37:31;16.07;;;8.97;;
26277;SDS011;14000;52.056;8.510;2023-02-28T08:39:57;20.47;;;9.77;;
26277;SDS011;14000;52.056;8.510;2023-02-28T08:42:23;18.57;;;9.27;;
26277;SDS011;14000;52.056;8.510;2023-02-28T08:44:49;21.93;;;9.90;;
26277;SDS011;14000;52.056;8.510;2023-02-28T08:47:18;16.83;;;8.27;;
26277;SDS011;14000;52.056;8.510;2023-02-28T08:49:44;14.77;;;7.43;;
26277;SDS011;14000;52.056;8.510;2023-02-28T08:52:09;14.07;;;7.03;;
26277;SDS011;14000;52.056;8.510;2023-02-28T08:54:35;16.53;;;7.93;;
26277;SDS011;14000;52.056;8.510;2023-02-28T08:57:01;14.90;;;7.07;;
26277;SDS011;14000;52.056;8.510;2023-02-28T08:59:27;16.70;;;7.43;;
26277;SDS011;14000;52.056;8.510;2023-02-28T09:01:54;15.40;;;6.90;;
26277;SDS011;14000;52.056;8.510;2023-02-28T09:04:20;17.03;;;7.43;;
26277;SDS011;14000;52.056;8.510;2023-02-28T09:06:45;14.93;;;6.43;;
26277;SDS011;14000;52.056;8.510;2023-02-28T09:09:13;19.87;;;7.33;;
26277;SDS011;14000;52.056;8.510;2023-02-28T09:11:39;14.77;;;6.83;;
26277;SDS011;14000;52.056;8.510;2023-02-28T09:14:05;15.20;;;6.03;;
26277;SDS011;14000;52.056;8.510;2023-02-28T09:16:31;12.10;;;6.03;;
26277;SDS011;14000;52.056;8.510;2023-02-28T09:18:57;14.30;;;5.47;;
26277;SDS011;14000;52.056;8.510;2023-02-28T09:21:26;12.90;;;5.43;;
26277;SDS011;14000;52.056;8.510;2023-02-28T09:23:52;14.00;;;6.03;;
26277;SDS011;14000;52.056;8.510;2023-02-28T09:26:23;11.63;;;5.30;;
26277;SDS011;14000;52.056;8.510;2023-02-28T09:28:50;12.73;;;4.90;;
26277;SDS011;14000;52.056;8.510;2023-02-28T09:31:18;11.53;;;5.20;;
26277;SDS011;14000;52.056;8.510;2023-02-28T09:33:49;11.33;;;5.00;;
26277;SDS011;14000;52.056;8.510;2023-02-28T09:36:15;12.40;;;4.60;;
26277;SDS011;14000;52.056;8.510;2023-02-28T09:38:41;12.40;;;4.93;;
26277;SDS011;14000;52.056;8.510;2023-02-28T09:41:14;12.00;;;4.53;;
26277;SDS011;14000;52.056;8.510;2023-02-28T09:43:44;10.53;;;4.00;;
26277;SDS011;14000;52.056;8.510;2023-02-28T09:46:29;12.17;;;3.77;;
26277;SDS011;14000;52.056;8.510;2023-02-28T09:49:05;9.77;;;3.80;;
26277;SDS011;14000;52.056;8.510;2023-02-28T09:54:14;10.47;;;3.80;;
26277;SDS011;14000;52.056;8.510;2023-02-28T09:56:43;10.67;;;3.60;;
26277;SDS011;14000;52.056;8.510;2023-02-28T09:59:22;9.90;;;3.60;;
26277;SDS011;14000;52.056;8.510;2023-02-28T10:04:56;9.97;;;3.43;;
26277;SDS011;14000;52.056;8.510;2023-02-28T10:10:29;10.47;;;4.03;;
26277;SDS011;14000;52.056;8.510;2023-02-28T10:13:10;15.33;;;5.43;;
26277;SDS011;14000;52.056;8.510;2023-02-28T10:15:41;16.43;;;5.40;;
26277;SDS011;14000;52.056;8.510;2023-02-28T10:18:11;9.43;;;2.80;;
26277;SDS011;14000;52.056;8.510;2023-02-28T10:20:39;8.80;;;2.67;;
26277;SDS011;14000;52.056;8.510;2023-02-28T10:25:38;8.17;;;2.33;;
26277;SDS011;14000;52.056;8.510;2023-02-28T10:30:46;7.33;;;2.00;;
26277;SDS011;14000;52.056;8.510;2023-02-28T10:33:22;8.77;;;2.23;;
26277;SDS011;14000;52.056;8.510;2023-02-28T10:35:50;8.60;;;2.17;;
26277;SDS011;14000;52.056;8.510;2023-02-28T10:38:22;6.50;;;1.80;;
26277;SDS011;14000;52.056;8.510;2023-02-28T10:40:50;9.43;;;2.27;;
26277;SDS011;14000;52.056;8.510;2023-02-28T10:48:36;7.20;;;1.87;;
26277;SDS011;14000;52.056;8.510;2023-02-28T10:51:02;7.00;;;2.00;;
26277;SDS011;14000;52.056;8.510;2023-02-28T10:53:31;7.57;;;1.90;;
26277;SDS011;14000;52.056;8.510;2023-02-28T10:58:51;6.23;;;2.00;;
26277;SDS011;14000;52.056;8.510;2023-02-28T11:04:16;9.07;;;1.97;;
26277;SDS011;14000;52.056;8.510;2023-02-28T11:06:48;6.07;;;1.73;;
26277;SDS011;14000;52.056;8.510;2023-02-28T11:09:24;7.33;;;1.80;;
26277;SDS011;14000;52.056;8.510;2023-02-28T11:11:56;7.43;;;1.90;;
26277;SDS011;14000;52.056;8.510;2023-02-28T11:14:26;9.30;;;1.90;;
26277;SDS011;14000;52.056;8.510;2023-02-28T11:16:55;7.50;;;2.00;;
26277;SDS011;14000;52.056;8.510;2023-02-28T11:19:27;8.03;;;1.93;;
26277;SDS011;14000;52.056;8.510;2023-02-28T11:21:59;7.43;;;2.00;;
26277;SDS011;14000;52.056;8.510;2023-02-28T11:26:57;6.93;;;1.80;;
26277;SDS011;14000;52.056;8.510;2023-02-28T11:29:27;7.27;;;1.90;;
26277;SDS011;14000;52.056;8.510;2023-02-28T11:32:13;6.40;;;1.80;;
26277;SDS011;14000;52.056;8.510;2023-02-28T11:34:44;7.10;;;1.77;;
26277;SDS011;14000;52.056;8.510;2023-02-28T11:37:12;6.33;;;1.70;;
26277;SDS011;14000;52.056;8.510;2023-02-28T11:39:43;10.10;;;1.80;;
26277;SDS011;14000;52.056;8.510;2023-02-28T11:53:11;6.93;;;1.80;;
26277;SDS011;14000;52.056;8.510;2023-02-28T11:58:37;8.27;;;1.60;;
26277;SDS011;14000;52.056;8.510;2023-02-28T12:01:19;6.67;;;1.57;;
26277;SDS011;14000;52.056;8.510;2023-02-28T12:08:52;6.53;;;1.70;;
26277;SDS011;14000;52.056;8.510;2023-02-28T12:16:48;5.93;;;1.40;;
26277;SDS011;14000;52.056;8.510;2023-02-28T12:27:32;6.93;;;1.73;;
26277;SDS011;14000;52.056;8.510;2023-02-28T12:32:49;7.03;;;1.90;;
26277;SDS011;14000;52.056;8.510;2023-02-28T12:35:23;7.10;;;1.90;;
26277;SDS011;14000;52.056;8.510;2023-02-28T12:38:02;7.63;;;1.90;;
26277;SDS011;14000;52.056;8.510;2023-02-28T12:40:41;8.13;;;1.93;;
26277;SDS011;14000;52.056;8.510;2023-02-28T12:43:09;7.43;;;2.13;;
26277;SDS011;14000;52.056;8.510;2023-02-28T12:48:15;9.40;;;2.60;;
26277;SDS011;14000;52.056;8.510;2023-02-28T12:50:49;8.97;;;2.23;;
26277;SDS011;14000;52.056;8.510;2023-02-28T12:53:22;8.87;;;2.10;;
26277;SDS011;14000;52.056;8.510;2023-02-28T12:56:00;9.03;;;2.30;;
26277;SDS011;14000;52.056;8.510;2023-02-28T12:58:36;8.40;;;2.33;;
26277;SDS011;14000;52.056;8.510;2023-02-28T13:10:07;8.40;;;2.30;;
26277;SDS011;14000;52.056;8.510;2023-02-28T13:12:34;8.67;;;2.40;;
26277;SDS011;14000;52.056;8.510;2023-02-28T13:17:37;8.30;;;2.00;;
26277;SDS011;14000;52.056;8.510;2023-02-28T13:20:22;7.77;;;2.33;;
26277;SDS011;14000;52.056;8.510;2023-02-28T13:22:51;8.90;;;2.30;;
26277;SDS011;14000;52.056;8.510;2023-02-28T13:27:48;7.80;;;2.30;;
26277;SDS011;14000;52.056;8.510;2023-02-28T13:49:32;7.87;;;2.27;;
26277;SDS011;14000;52.056;8.510;2023-02-28T13:57:23;6.33;;;2.00;;
26277;SDS011;14000;52.056;8.510;2023-02-28T14:05:31;7.97;;;2.37;;
26277;SDS011;14000;52.056;8.510;2023-02-28T14:07:59;8.27;;;2.40;;
26277;SDS011;14000;52.056;8.510;2023-02-28T14:10:35;8.67;;;2.10;;
26277;SDS011;14000;52.056;8.510;2023-02-28T14:21:13;8.03;;;2.20;;
26277;SDS011;14000;52.056;8.510;2023-02-28T14:27:06;6.97;;;2.20;;
26277;SDS011;14000;52.056;8.510;2023-02-28T14:34:52;7.77;;;2.47;;
26277;SDS011;14000;52.056;8.510;2023-02-28T14:37:43;9.73;;;2.77;;
26277;SDS011;14000;52.056;8.510;2023-02-28T14:40:16;8.93;;;2.47;;
26277;SDS011;14000;52.056;8.510;2023-02-28T14:42:55;11.20;;;2.40;;
26277;SDS011;14000;52.056;8.510;2023-02-28T14:45:26;11.03;;;2.43;;
26277;SDS011;14000;52.056;8.510;2023-02-28T14:47:56;10.03;;;2.60;;
26277;SDS011;14000;52.056;8.510;2023-02-28T14:50:33;10.47;;;2.70;;
26277;SDS011;14000;52.056;8.510;2023-02-28T14:53:00;10.77;;;2.67;;
26277;SDS011;14000;52.056;8.510;2023-02-28T14:55:29;8.30;;;2.57;;
26277;SDS011;14000;52.056;8.510;2023-02-28T14:57:57;6.83;;;2.23;;
26277;SDS011;14000;52.056;8.510;2023-02-28T15:00:28;7.00;;;2.27;;
26277;SDS011;14000;52.056;8.510;2023-02-28T15:02:56;8.27;;;2.50;;
26277;SDS011;14000;52.056;8.510;2023-02-28T15:05:26;8.83;;;2.90;;
26277;SDS011;14000;52.056;8.510;2023-02-28T15:08:05;9.00;;;2.47;;
26277;SDS011;14000;52.056;8.510;2023-02-28T15:10:38;7.97;;;2.40;;
26277;SDS011;14000;52.056;8.510;2023-02-28T15:13:08;8.73;;;2.40;;
26277;SDS011;14000;52.056;8.510;2023-02-28T15:15:42;9.20;;;2.77;;
26277;SDS011;14000;52.056;8.510;2023-02-28T15:19:00;8.97;;;2.77;;
26277;SDS011;14000;52.056;8.510;2023-02-28T15:21:12;8.17;;;2.27;;
26277;SDS011;14000;52.056;8.510;2023-02-28T15:24:01;9.53;;;2.80;;
26277;SDS011;14000;52.056;8.510;2023-02-28T15:26:34;8.00;;;2.40;;
26277;SDS011;14000;52.056;8.510;2023-02-28T15:29:07;9.33;;;2.90;;
26277;SDS011;14000;52.056;8.510;2023-02-28T15:31:43;9.43;;;2.90;;
26277;SDS011;14000;52.056;8.510;2023-02-28T15:34:18;8.17;;;2.60;;
26277;SDS011;14000;52.056;8.510;2023-02-28T15:36:46;9.10;;;2.73;;
26277;SDS011;14000;52.056;8.510;2023-02-28T15:39:25;8.60;;;2.53;;
26277;SDS011;14000;52.056;8.510;2023-02-28T15:42:12;8.50;;;2.70;;
26277;SDS011;14000;52.056;8.510;2023-02-28T15:44:44;8.80;;;3.20;;
26277;SDS011;14000;52.056;8.510;2023-02-28T15:47:19;9.00;;;2.90;;
26277;SDS011;14000;52.056;8.510;2023-02-28T15:49:51;8.43;;;2.50;;
26277;SDS011;14000;52.056;8.510;2023-02-28T15:52:26;9.23;;;2.43;;
26277;SDS011;14000;52.056;8.510;2023-02-28T15:54:56;9.20;;;2.90;;
26277;SDS011;14000;52.056;8.510;2023-02-28T15:57:27;10.67;;;3.37;;
26277;SDS011;14000;52.056;8.510;2023-02-28T15:59:58;8.27;;;2.53;;
26277;SDS011;14000;52.056;8.510;2023-02-28T16:02:33;10.23;;;3.07;;
26277;SDS011;14000;52.056;8.510;2023-02-28T16:07:36;9.10;;;3.00;;
26277;SDS011;14000;52.056;8.510;2023-02-28T16:10:03;10.80;;;3.00;;
26277;SDS011;14000;52.056;8.510;2023-02-28T16:12:31;10.23;;;2.70;;
26277;SDS011;14000;52.056;8.510;2023-02-28T16:14:59;8.13;;;2.60;;
26277;SDS011;14000;52.056;8.510;2023-02-28T16:17:34;10.67;;;2.70;;
26277;SDS011;14000;52.056;8.510;2023-02-28T16:20:05;9.40;;;2.43;;
26277;SDS011;14000;52.056;8.510;2023-02-28T16:22:37;9.03;;;2.90;;
26277;SDS011;14000;52.056;8.510;2023-02-28T16:25:03;7.67;;;2.50;;
26277;SDS011;14000;52.056;8.510;2023-02-28T16:27:33;8.67;;;3.00;;
26277;SDS011;14000;52.056;8.510;2023-02-28T16:30:01;12.43;;;2.90;;
26277;SDS011;14000;52.056;8.510;2023-02-28T16:32:28;7.90;;;2.53;;
26277;SDS011;14000;52.056;8.510;2023-02-28T16:34:54;10.20;;;2.87;;
26277;SDS011;14000;52.056;8.510;2023-02-28T16:37:19;8.10;;;2.80;;
26277;SDS011;14000;52.056;8.510;2023-02-28T16:39:45;9.40;;;2.80;;
26277;SDS011;14000;52.056;8.510;2023-02-28T16:42:32;9.53;;;2.67;;
26277;SDS011;14000;52.056;8.510;2023-02-28T16:44:57;9.00;;;3.00;;
26277;SDS011;14000;52.056;8.510;2023-02-28T16:47:23;8.57;;;2.80;;
26277;SDS011;14000;52.056;8.510;2023-02-28T16:49:49;9.63;;;2.80;;
26277;SDS011;14000;52.056;8.510;2023-02-28T16:52:14;7.83;;;2.70;;
26277;SDS011;14000;52.056;8.510;2023-02-28T16:54:41;10.33;;;2.90;;
26277;SDS011;14000;52.056;8.510;2023-02-28T16:57:11;9.47;;;2.77;;
26277;SDS011;14000;52.056;8.510;2023-02-28T16:59:43;9.87;;;3.40;;
26277;SDS011;14000;52.056;8.510;2023-02-28T17:02:12;13.03;;;3.10;;
26277;SDS011;14000;52.056;8.510;2023-02-28T17:04:40;9.50;;;3.40;;
26277;SDS011;14000;52.056;8.510;2023-02-28T17:07:08;9.87;;;3.43;;
26277;SDS011;14000;52.056;8.510;2023-02-28T17:09:37;8.27;;;3.00;;
26277;SDS011;14000;52.056;8.510;2023-02-28T17:12:03;11.93;;;3.70;;
26277;SDS011;14000;52.056;8.510;2023-02-28T17:14:28;11.60;;;4.07;;
26277;SDS011;14000;52.056;8.510;2023-02-28T17:16:54;14.63;;;3.63;;
26277;SDS011;14000;52.056;8.510;2023-02-28T17:19:19;10.13;;;3.40;;
26277;SDS011;14000;52.056;8.510;2023-02-28T17:21:45;10.47;;;3.33;;
26277;SDS011;14000;52.056;8.510;2023-02-28T17:24:11;10.47;;;3.37;;